Terminal Aerodrome Forecast
Issued by NWS Quad Cities IA IL

Home | Current Version | Previous Version | Text Only | Print | Product List | Glossary On
Versions: 1 2 3 4 5 6 7 8 9 10 11 12 13 14 15 16 17 18 19 20 21 22 23 24 25
000
FTUS43 KDVN 191312 AAA
TAFDBQ
TAF AMD
KDBQ 191312Z 1913/2012 18010KT P6SM OVC040
      TEMPO 1913/1914 3SM -RADZ OVC015
     FM191400 15006KT 3SM -RADZ BR OVC015
      TEMPO 1914/1917 1SM -RADZ OVC005
     FM191700 11007KT 1SM -DZRA BR OVC005
     FM200000 04005KT 3SM -RA BR OVC007
     FM200600 02006KT 1SM -RADZ OVC005=

USA.gov is the U.S. government's official web portal to all federal, state and local government web resources and services.